createdAt,value
2018-03-20T00:00:08.916Z,12.60
2018-03-20T00:02:37.188Z,12.97
2018-03-20T00:05:05.490Z,12.03
2018-03-20T00:07:33.855Z,10.57
2018-03-20T00:10:02.121Z,11.27
2018-03-20T00:12:31.909Z,13.23
2018-03-20T00:15:00.933Z,12.90
2018-03-20T00:17:29.283Z,9.83
2018-03-20T00:19:57.600Z,10.70
2018-03-20T00:22:26.001Z,9.43
2018-03-20T00:24:54.318Z,12.83
2018-03-20T00:27:23.370Z,15.00
2018-03-20T00:29:51.630Z,12.03
2018-03-20T00:32:19.896Z,12.47
2018-03-20T00:34:48.933Z,12.67
2018-03-20T00:37:17.239Z,14.60
2018-03-20T00:39:45.510Z,11.77
2018-03-20T00:42:13.794Z,14.30
2018-03-20T00:44:42.052Z,13.97
2018-03-20T00:47:10.338Z,15.80
2018-03-20T00:49:38.612Z,12.97
2018-03-20T00:52:07.000Z,12.37
2018-03-20T00:54:35.272Z,12.07
2018-03-20T00:57:03.558Z,13.80
2018-03-20T00:59:31.824Z,11.53
2018-03-20T01:02:00.152Z,11.63
2018-03-20T01:04:28.547Z,16.33
2018-03-20T01:06:57.049Z,15.67
2018-03-20T01:09:26.291Z,9.90
2018-03-20T01:11:54.744Z,17.40
2018-03-20T01:14:23.840Z,14.73
2018-03-20T01:16:52.124Z,11.43
2018-03-20T01:19:20.380Z,16.67
2018-03-20T01:21:49.438Z,9.40
2018-03-20T01:24:17.764Z,12.47
2018-03-20T01:26:46.793Z,11.73
2018-03-20T01:29:15.837Z,11.97
2018-03-20T01:31:44.207Z,13.13
2018-03-20T01:34:12.513Z,10.83
2018-03-20T01:36:40.782Z,17.27
2018-03-20T01:39:09.052Z,14.60
2018-03-20T01:41:38.078Z,17.20
2018-03-20T01:44:06.364Z,17.83
2018-03-20T01:46:35.385Z,12.33
2018-03-20T01:49:03.672Z,14.43
2018-03-20T01:51:31.932Z,12.33
2018-03-20T01:54:01.056Z,12.07
2018-03-20T01:56:29.415Z,16.67
2018-03-20T01:58:57.703Z,10.90
2018-03-20T02:01:26.066Z,10.00
2018-03-20T02:03:54.372Z,8.97
2018-03-20T02:06:23.603Z,11.30
2018-03-20T02:08:52.020Z,9.73
2018-03-20T02:11:20.284Z,14.80
2018-03-20T02:13:49.333Z,13.60
2018-03-20T02:16:17.610Z,15.80
2018-03-20T02:18:46.645Z,13.10
2018-03-20T02:21:14.925Z,10.90
2018-03-20T02:23:43.218Z,12.87
2018-03-20T02:26:11.485Z,11.30
2018-03-20T02:28:39.768Z,7.00
2018-03-20T02:31:08.026Z,14.27
2018-03-20T02:33:36.313Z,13.07
2018-03-20T02:36:04.570Z,9.10
2018-03-20T02:38:33.616Z,11.60
2018-03-20T02:41:02.658Z,10.30
2018-03-20T02:43:30.937Z,8.37
2018-03-20T02:45:59.984Z,10.10
2018-03-20T02:48:28.373Z,13.10
2018-03-20T02:50:56.768Z,13.83
2018-03-20T02:53:26.666Z,10.70
2018-03-20T02:55:54.977Z,10.20
2018-03-20T02:58:23.358Z,10.93
2018-03-20T03:00:51.641Z,6.93
2018-03-20T03:03:19.917Z,13.40
2018-03-20T03:05:48.214Z,9.97
2018-03-20T03:08:16.484Z,14.03
2018-03-20T03:10:45.563Z,8.43
2018-03-20T03:13:13.939Z,12.27
2018-03-20T03:15:42.213Z,11.93
2018-03-20T03:18:10.508Z,9.67
2018-03-20T03:20:38.772Z,7.90
2018-03-20T03:23:07.172Z,11.63
2018-03-20T03:25:35.422Z,7.97
2018-03-20T03:28:04.469Z,10.87
2018-03-20T03:30:32.749Z,11.00
2018-03-20T03:33:01.009Z,13.50
2018-03-20T03:35:30.101Z,12.27
2018-03-20T03:37:58.452Z,8.23
2018-03-20T03:40:26.845Z,14.47
2018-03-20T03:42:55.286Z,10.73
2018-03-20T03:45:23.624Z,8.87
2018-03-20T03:47:51.896Z,13.57
2018-03-20T03:50:20.174Z,9.37
2018-03-20T03:52:49.195Z,11.43
2018-03-20T03:55:17.689Z,8.57
2018-03-20T03:57:46.787Z,7.53
2018-03-20T04:00:15.908Z,10.23
2018-03-20T04:02:44.190Z,7.57
2018-03-20T04:05:13.261Z,10.53
2018-03-20T04:07:42.683Z,9.10
2018-03-20T04:10:11.733Z,13.97
2018-03-20T04:12:40.010Z,8.67
2018-03-20T04:15:09.048Z,10.67
2018-03-20T04:17:37.318Z,10.07
2018-03-20T04:20:05.701Z,9.87
2018-03-20T04:22:35.469Z,10.90
2018-03-20T04:25:03.760Z,11.97
2018-03-20T04:27:32.026Z,11.63
2018-03-20T04:30:00.350Z,11.93
2018-03-20T04:32:28.701Z,9.97
2018-03-20T04:34:57.060Z,15.03
2018-03-20T04:37:25.433Z,9.67
2018-03-20T04:39:53.816Z,10.90
2018-03-20T04:42:22.079Z,14.20
2018-03-20T04:44:51.148Z,8.97
2018-03-20T04:47:19.406Z,14.67
2018-03-20T04:49:48.564Z,13.00
2018-03-20T04:52:16.833Z,16.27
2018-03-20T04:54:45.146Z,11.13
2018-03-20T04:57:13.513Z,13.30
2018-03-20T04:59:41.788Z,9.83
2018-03-20T05:02:10.841Z,12.53
2018-03-20T05:04:39.112Z,10.80
2018-03-20T05:07:07.375Z,12.10
2018-03-20T05:09:36.431Z,13.27
2018-03-20T05:12:04.700Z,11.37
2018-03-20T05:14:32.993Z,10.47
2018-03-20T05:17:01.260Z,10.40
2018-03-20T05:19:32.778Z,11.93
2018-03-20T05:22:06.445Z,12.03
2018-03-20T05:24:34.736Z,13.57
2018-03-20T05:27:03.000Z,12.47
2018-03-20T05:29:31.285Z,14.47
2018-03-20T05:31:59.580Z,11.10
2018-03-20T05:34:28.721Z,11.43
2018-03-20T05:36:57.124Z,10.33
2018-03-20T05:39:25.515Z,13.97
2018-03-20T05:41:53.887Z,12.83
2018-03-20T05:44:22.981Z,10.23
2018-03-20T05:50:13.888Z,11.07
2018-03-20T05:52:42.177Z,18.43
2018-03-20T05:55:10.480Z,14.20
2018-03-20T05:57:38.749Z,17.03
2018-03-20T06:00:07.017Z,16.43
2018-03-20T06:02:36.060Z,13.07
2018-03-20T06:05:04.363Z,12.87
2018-03-20T06:07:32.633Z,15.90
2018-03-20T06:10:00.904Z,13.53
2018-03-20T06:12:29.213Z,13.17
2018-03-20T06:14:57.628Z,14.57
2018-03-20T06:17:25.983Z,15.00
2018-03-20T06:19:54.375Z,18.27
2018-03-20T06:22:22.695Z,13.43
2018-03-20T06:24:50.979Z,10.03
2018-03-20T06:27:19.262Z,13.13
2018-03-20T06:29:47.642Z,12.27
2018-03-20T06:32:15.965Z,13.40
2018-03-20T06:34:44.292Z,10.63
2018-03-20T06:37:12.690Z,17.07
2018-03-20T06:39:40.985Z,13.63
2018-03-20T06:42:09.260Z,13.90
2018-03-20T06:44:37.535Z,8.27
2018-03-20T06:47:06.576Z,11.47
2018-03-20T06:49:34.853Z,16.60
2018-03-20T06:52:03.136Z,15.90
2018-03-20T06:54:31.405Z,11.70
2018-03-20T06:56:59.752Z,14.33
2018-03-20T06:59:28.101Z,16.37
2018-03-20T07:01:57.324Z,14.07
2018-03-20T07:04:25.683Z,14.07
2018-03-20T07:06:54.467Z,11.77
2018-03-20T07:09:22.751Z,14.20
2018-03-20T07:11:51.054Z,16.87
2018-03-20T07:14:19.317Z,10.93
2018-03-20T07:16:47.637Z,16.93
2018-03-20T07:19:15.926Z,12.70
2018-03-20T07:21:45.009Z,11.47
2018-03-20T07:24:13.293Z,18.10
2018-03-20T07:26:41.578Z,11.90
2018-03-20T07:29:09.880Z,12.40
2018-03-20T07:31:38.165Z,14.70
2018-03-20T07:34:06.440Z,12.87
2018-03-20T07:36:34.698Z,14.17
2018-03-20T07:39:03.746Z,17.67
2018-03-20T07:41:32.005Z,12.80
2018-03-20T07:44:00.360Z,13.47
2018-03-20T07:46:28.990Z,10.37
2018-03-20T07:48:57.348Z,10.73
2018-03-20T07:51:25.706Z,15.27
2018-03-20T07:53:54.601Z,12.60
2018-03-20T07:56:22.902Z,13.60
2018-03-20T07:58:51.970Z,14.30
2018-03-20T08:01:20.260Z,14.03
2018-03-20T08:03:48.537Z,14.53
2018-03-20T08:06:17.675Z,14.20
2018-03-20T08:08:45.956Z,10.77
2018-03-20T08:11:14.229Z,12.40
2018-03-20T08:13:43.281Z,14.67
2018-03-20T08:16:11.646Z,13.23
2018-03-20T08:18:39.937Z,13.00
2018-03-20T08:21:08.200Z,12.80
2018-03-20T08:23:37.244Z,13.67
2018-03-20T08:26:05.500Z,16.70
2018-03-20T08:28:34.600Z,13.63
2018-03-20T08:31:02.839Z,14.43
2018-03-20T08:33:31.161Z,16.57
2018-03-20T08:35:59.513Z,14.67
2018-03-20T08:38:27.983Z,17.10
2018-03-20T08:40:56.383Z,18.97
2018-03-20T08:43:24.772Z,20.10
2018-03-20T08:45:53.038Z,12.37
2018-03-20T08:48:21.331Z,16.87
2018-03-20T08:50:49.602Z,11.40
2018-03-20T08:53:17.876Z,15.93
2018-03-20T08:55:46.188Z,14.40
2018-03-20T08:58:15.292Z,13.73
2018-03-20T09:00:43.551Z,15.00
2018-03-20T09:03:11.837Z,14.73
2018-03-20T09:05:40.087Z,14.53
2018-03-20T09:08:08.364Z,14.93
2018-03-20T09:10:37.380Z,14.90
2018-03-20T09:13:05.648Z,13.63
2018-03-20T09:15:34.675Z,15.83
2018-03-20T09:18:02.964Z,15.90
2018-03-20T09:20:31.998Z,17.00
2018-03-20T09:23:00.302Z,15.07
2018-03-20T09:25:28.686Z,14.20
2018-03-20T09:27:57.180Z,15.53
2018-03-20T09:30:25.685Z,17.07
2018-03-20T09:32:54.450Z,14.17
2018-03-20T09:35:22.718Z,14.90
2018-03-20T09:37:51.748Z,16.40
2018-03-20T09:40:20.020Z,15.70
2018-03-20T09:42:49.127Z,10.10
2018-03-20T09:45:18.173Z,15.03
2018-03-20T09:47:46.420Z,13.97
2018-03-20T09:50:15.488Z,11.97
2018-03-20T09:52:43.892Z,12.30
2018-03-20T09:55:12.195Z,12.37
2018-03-20T09:57:40.572Z,13.17
2018-03-20T10:00:08.901Z,11.77
2018-03-20T10:02:37.148Z,14.90
2018-03-20T10:05:05.411Z,15.17
2018-03-20T10:07:33.673Z,10.43
2018-03-20T10:10:01.952Z,15.30
2018-03-20T10:12:30.257Z,12.43
2018-03-20T10:14:58.651Z,10.93
2018-03-20T10:17:27.098Z,9.20
2018-03-20T10:19:56.507Z,10.90
2018-03-20T10:22:24.906Z,9.03
2018-03-20T10:24:54.405Z,10.03
2018-03-20T10:27:22.678Z,10.60
2018-03-20T10:29:51.061Z,12.10
2018-03-20T10:32:20.079Z,10.90
2018-03-20T10:34:48.350Z,12.73
2018-03-20T10:37:16.609Z,11.00
2018-03-20T10:39:45.681Z,11.37
2018-03-20T10:42:13.979Z,12.43
2018-03-20T10:44:43.033Z,10.90
2018-03-20T10:47:11.352Z,10.43
2018-03-20T10:49:39.622Z,12.23
2018-03-20T10:52:07.853Z,16.23
2018-03-20T10:54:36.915Z,10.13
2018-03-20T10:57:05.170Z,10.97
2018-03-20T10:59:34.243Z,11.23
2018-03-20T11:02:07.983Z,10.80
2018-03-20T11:04:36.259Z,9.83
2018-03-20T11:07:04.508Z,8.63
2018-03-20T11:09:32.901Z,8.23
2018-03-20T11:12:01.188Z,6.43
2018-03-20T11:14:29.625Z,8.90
2018-03-20T11:16:58.043Z,8.33
2018-03-20T11:19:27.240Z,9.43
2018-03-20T11:21:56.399Z,8.73
2018-03-20T11:24:24.764Z,8.83
2018-03-20T11:26:53.201Z,10.33
2018-03-20T11:29:21.496Z,9.20
2018-03-20T11:31:49.847Z,9.83
2018-03-20T11:34:19.008Z,10.53
2018-03-20T11:36:47.316Z,10.13
2018-03-20T11:39:15.575Z,9.83
2018-03-20T11:41:43.924Z,11.90
2018-03-20T11:44:12.192Z,7.60
2018-03-20T11:46:41.258Z,9.37
2018-03-20T11:49:09.488Z,9.63
2018-03-20T11:51:38.529Z,9.27
2018-03-20T11:54:06.780Z,8.03
2018-03-20T11:56:35.054Z,7.43
2018-03-20T11:59:03.317Z,10.27
2018-03-20T12:01:31.576Z,8.87
2018-03-20T12:03:59.873Z,9.87
2018-03-20T12:06:28.231Z,9.50
2018-03-20T12:12:04.976Z,7.53
2018-03-20T12:14:33.249Z,8.57
2018-03-20T12:17:02.336Z,6.13
2018-03-20T12:19:30.607Z,6.37
2018-03-20T12:21:58.883Z,6.20
2018-03-20T12:24:27.198Z,5.63
2018-03-20T12:26:55.538Z,4.90
2018-03-20T12:29:23.807Z,7.20
2018-03-20T12:31:52.142Z,7.37
2018-03-20T12:34:21.139Z,6.10
2018-03-20T12:36:49.460Z,9.70
2018-03-20T12:39:17.708Z,5.83
2018-03-20T12:41:46.017Z,7.13
2018-03-20T12:44:14.368Z,7.27
2018-03-20T12:46:44.036Z,6.60
2018-03-20T12:49:12.306Z,5.97
2018-03-20T12:51:40.589Z,8.67
2018-03-20T12:54:08.842Z,12.33
2018-03-20T12:56:37.937Z,9.57
2018-03-20T12:59:06.187Z,9.73
2018-03-20T13:01:35.232Z,13.17
2018-03-20T13:04:03.489Z,8.67
2018-03-20T13:06:31.757Z,9.07
2018-03-20T13:09:00.013Z,8.83
2018-03-20T13:11:29.070Z,9.87
2018-03-20T13:13:58.123Z,10.67
2018-03-20T13:16:26.421Z,10.43
2018-03-20T13:18:55.477Z,9.80
2018-03-20T13:21:23.765Z,10.23
2018-03-20T13:23:52.833Z,7.13
2018-03-20T13:26:21.897Z,10.13
2018-03-20T13:28:50.153Z,13.07
2018-03-20T13:31:18.432Z,8.53
2018-03-20T13:33:46.728Z,8.33
2018-03-20T13:36:15.081Z,13.10
2018-03-20T13:38:43.367Z,7.67
2018-03-20T13:41:11.630Z,6.63
2018-03-20T13:43:39.876Z,9.67
2018-03-20T13:46:08.154Z,10.43
2018-03-20T13:48:37.159Z,11.20
2018-03-20T13:51:06.183Z,12.07
2018-03-20T13:53:34.434Z,8.97
2018-03-20T13:56:02.822Z,12.23
2018-03-20T13:58:31.084Z,11.70
2018-03-20T14:00:59.418Z,14.63
2018-03-20T14:03:27.715Z,9.87
2018-03-20T14:05:56.032Z,10.70
2018-03-20T14:08:24.389Z,12.07
2018-03-20T14:10:53.826Z,10.43
2018-03-20T14:13:22.145Z,7.23
2018-03-20T14:15:50.407Z,11.40
2018-03-20T14:18:18.680Z,8.83
2018-03-20T14:20:47.711Z,6.87
2018-03-20T14:23:15.985Z,8.83
2018-03-20T14:25:45.043Z,9.60
2018-03-20T14:28:13.295Z,8.00
2018-03-20T14:30:41.558Z,13.13
2018-03-20T14:33:10.585Z,10.17
2018-03-20T14:35:38.842Z,7.97
2018-03-20T14:38:07.105Z,8.67
2018-03-20T14:40:35.365Z,8.50
2018-03-20T14:43:04.453Z,6.30
2018-03-20T14:45:33.476Z,6.80
2018-03-20T14:48:01.752Z,10.63
2018-03-20T14:50:30.096Z,7.13
2018-03-20T14:52:58.378Z,10.13
2018-03-20T14:55:26.735Z,11.23
2018-03-20T14:57:55.070Z,8.77
2018-03-20T15:00:24.334Z,10.80
2018-03-20T15:02:53.368Z,12.77
2018-03-20T15:05:21.632Z,9.87
2018-03-20T15:07:49.907Z,9.83
2018-03-20T15:10:18.174Z,10.63
2018-03-20T15:12:47.240Z,10.40
2018-03-20T15:15:15.495Z,10.43
2018-03-20T15:17:43.835Z,11.23
2018-03-20T15:20:12.153Z,10.90
2018-03-20T15:22:41.184Z,10.43
2018-03-20T15:25:09.657Z,12.40
2018-03-20T15:27:37.949Z,11.63
2018-03-20T15:30:07.712Z,9.90
2018-03-20T15:32:35.992Z,14.73
2018-03-20T15:35:04.241Z,10.10
2018-03-20T15:37:32.520Z,11.00
2018-03-20T15:40:00.788Z,8.53
2018-03-20T15:42:29.168Z,13.73
2018-03-20T15:44:57.468Z,12.17
2018-03-20T15:47:25.952Z,16.57
2018-03-20T15:49:55.417Z,16.50
2018-03-20T15:52:23.962Z,13.13
2018-03-20T15:54:52.248Z,12.30
2018-03-20T15:57:20.512Z,10.77
2018-03-20T15:59:48.773Z,17.60
2018-03-20T16:02:17.047Z,12.33
2018-03-20T16:04:45.337Z,16.10
2018-03-20T16:07:13.593Z,12.40
2018-03-20T16:09:41.876Z,11.30
2018-03-20T16:12:10.149Z,13.50
2018-03-20T16:14:38.451Z,15.27
2018-03-20T16:17:06.725Z,16.07
2018-03-20T16:19:35.018Z,10.87
2018-03-20T16:22:03.325Z,13.77
2018-03-20T16:24:32.442Z,12.43
2018-03-20T16:27:00.775Z,11.53
2018-03-20T16:29:29.912Z,12.23
2018-03-20T16:31:58.990Z,10.87
2018-03-20T16:34:27.353Z,11.03
2018-03-20T16:36:55.724Z,15.60
2018-03-20T16:39:24.030Z,13.80
2018-03-20T16:41:52.387Z,13.20
2018-03-20T16:44:20.658Z,14.53
2018-03-20T16:46:49.685Z,16.53
2018-03-20T16:49:17.967Z,13.10
2018-03-20T16:51:46.237Z,15.77
2018-03-20T16:54:15.297Z,17.27
2018-03-20T16:56:43.594Z,12.87
2018-03-20T16:59:11.860Z,12.23
2018-03-20T17:01:40.157Z,14.70
2018-03-20T17:04:08.442Z,20.13
2018-03-20T17:06:36.764Z,15.93
2018-03-20T17:09:05.072Z,20.10
2018-03-20T17:11:33.372Z,21.93
2018-03-20T17:14:01.642Z,20.73
2018-03-20T17:16:29.984Z,18.60
2018-03-20T17:18:58.363Z,16.43
2018-03-20T17:21:26.717Z,13.83
2018-03-20T17:23:55.116Z,13.43
2018-03-20T17:26:23.382Z,18.40
2018-03-20T17:28:52.444Z,15.53
2018-03-20T17:31:20.705Z,12.50
2018-03-20T17:33:49.847Z,12.73
2018-03-20T17:36:18.125Z,16.83
2018-03-20T17:38:47.165Z,12.43
2018-03-20T17:41:15.463Z,15.07
2018-03-20T17:43:43.817Z,13.43
2018-03-20T17:46:12.113Z,13.70
2018-03-20T17:48:41.170Z,13.87
2018-03-20T17:51:09.432Z,20.03
2018-03-20T17:53:37.712Z,12.00
2018-03-20T17:56:05.980Z,12.87
2018-03-20T17:58:34.256Z,16.07
2018-03-20T18:01:03.293Z,12.63
2018-03-20T18:03:31.600Z,14.30
2018-03-20T18:06:00.040Z,13.43
2018-03-20T18:08:28.297Z,13.97
2018-03-20T18:10:56.677Z,17.43
2018-03-20T18:13:25.966Z,14.90
2018-03-20T18:15:55.160Z,15.03
2018-03-20T18:18:23.485Z,17.97
2018-03-20T18:20:51.782Z,17.27
2018-03-20T18:23:20.039Z,17.10
2018-03-20T18:25:48.333Z,16.50
2018-03-20T18:28:16.711Z,17.63
2018-03-20T18:30:45.039Z,16.13
2018-03-20T18:33:13.315Z,19.57
2018-03-20T18:35:41.685Z,16.40
2018-03-20T18:38:10.721Z,22.40
2018-03-20T18:40:39.007Z,20.00
2018-03-20T18:43:07.276Z,18.00
2018-03-20T18:45:35.551Z,16.27
2018-03-20T18:48:03.876Z,23.63
2018-03-20T18:50:32.154Z,23.03
2018-03-20T18:53:00.462Z,19.57
2018-03-20T18:55:28.813Z,17.40
2018-03-20T18:57:57.089Z,19.27
2018-03-20T19:00:26.338Z,19.27
2018-03-20T19:02:54.762Z,19.50
2018-03-20T19:05:23.049Z,21.07
2018-03-20T19:07:51.336Z,16.70
2018-03-20T19:10:19.624Z,18.03
2018-03-20T19:12:47.880Z,21.10
2018-03-20T19:15:16.173Z,18.23
2018-03-20T19:17:44.499Z,18.87
2018-03-20T19:20:12.813Z,19.00
2018-03-20T19:22:41.863Z,18.60
2018-03-20T19:25:10.137Z,19.87
2018-03-20T19:27:38.412Z,21.10
2018-03-20T19:30:07.465Z,19.30
2018-03-20T19:32:35.824Z,22.10
2018-03-20T19:35:04.093Z,21.27
2018-03-20T19:37:33.125Z,21.23
2018-03-20T19:40:01.398Z,23.67
2018-03-20T19:42:30.476Z,42.30
2018-03-20T19:44:58.820Z,23.83
2018-03-20T19:47:27.137Z,21.93
2018-03-20T19:49:56.446Z,20.50
2018-03-20T19:52:25.124Z,23.07
2018-03-20T19:54:53.512Z,17.73
2018-03-20T19:57:21.895Z,26.00
2018-03-20T19:59:50.159Z,23.17
2018-03-20T20:02:19.217Z,22.40
2018-03-20T20:04:47.484Z,23.83
2018-03-20T20:07:15.878Z,20.53
2018-03-20T20:09:44.172Z,18.73
2018-03-20T20:12:12.446Z,21.93
2018-03-20T20:14:40.771Z,21.60
2018-03-20T20:17:09.051Z,20.33
2018-03-20T20:19:37.299Z,18.23
2018-03-20T20:22:06.336Z,19.03
2018-03-20T20:24:34.600Z,18.97
2018-03-20T20:27:03.639Z,16.30
2018-03-20T20:29:31.922Z,20.77
2018-03-20T20:32:00.240Z,18.93
2018-03-20T20:34:28.582Z,18.20
2018-03-20T20:36:57.601Z,19.07
2018-03-20T20:39:25.902Z,19.80
2018-03-20T20:41:54.246Z,21.53
2018-03-20T20:44:22.509Z,17.13
2018-03-20T20:46:52.296Z,17.90
2018-03-20T20:49:20.552Z,19.03
2018-03-20T20:51:49.596Z,17.93
2018-03-20T20:54:17.863Z,23.13
2018-03-20T20:56:46.159Z,20.80
2018-03-20T20:59:14.444Z,22.43
2018-03-20T21:01:43.497Z,22.53
2018-03-20T21:04:12.544Z,18.13
2018-03-20T21:06:41.645Z,22.50
2018-03-20T21:09:09.941Z,18.33
2018-03-20T21:11:38.987Z,20.07
2018-03-20T21:14:07.245Z,20.03
2018-03-20T21:16:36.302Z,17.90
2018-03-20T21:19:04.658Z,17.97
2018-03-20T21:21:32.927Z,17.77
2018-03-20T21:24:01.972Z,15.77
2018-03-20T21:26:30.268Z,24.40
2018-03-20T21:28:58.592Z,17.87
2018-03-20T21:31:26.924Z,16.20
2018-03-20T21:33:55.264Z,17.97
2018-03-20T21:36:23.596Z,15.10
2018-03-20T21:38:53.348Z,15.97
2018-03-20T21:41:21.650Z,17.60
2018-03-20T21:43:50.016Z,18.80
2018-03-20T21:46:18.296Z,19.40
2018-03-20T21:48:46.569Z,18.33
2018-03-20T21:51:15.632Z,19.53
2018-03-20T21:53:43.985Z,14.53
2018-03-20T21:56:12.261Z,16.80
2018-03-20T21:58:41.318Z,17.83
2018-03-20T22:01:09.639Z,13.77
2018-03-20T22:03:37.921Z,16.20
2018-03-20T22:06:06.172Z,15.80
2018-03-20T22:08:34.482Z,13.53
2018-03-20T22:11:02.760Z,14.00
2018-03-20T22:13:31.117Z,16.70
2018-03-20T22:15:59.440Z,14.13
2018-03-20T22:18:28.111Z,15.57
2018-03-20T22:20:57.333Z,16.23
2018-03-20T22:23:25.760Z,14.53
2018-03-20T22:25:54.174Z,18.83
2018-03-20T22:28:22.602Z,13.83
2018-03-20T22:30:50.868Z,15.93
2018-03-20T22:33:19.925Z,16.13
2018-03-20T22:35:48.288Z,10.73
2018-03-20T22:38:17.377Z,15.17
2018-03-20T22:40:46.452Z,17.63
2018-03-20T22:43:14.798Z,11.00
2018-03-20T22:45:43.064Z,10.57
2018-03-20T22:48:12.193Z,9.53
2018-03-20T22:50:40.446Z,12.90
2018-03-20T22:53:09.476Z,13.73
2018-03-20T22:55:37.731Z,10.77
2018-03-20T22:58:05.994Z,9.03
2018-03-20T23:00:34.257Z,8.60
2018-03-20T23:03:02.548Z,11.00
2018-03-20T23:05:30.871Z,10.20
2018-03-20T23:07:59.291Z,9.60
2018-03-20T23:10:28.761Z,10.37
2018-03-20T23:12:57.977Z,8.97
2018-03-20T23:15:26.323Z,11.33
2018-03-20T23:17:54.746Z,11.43
2018-03-20T23:20:23.035Z,9.50
2018-03-20T23:22:51.333Z,10.67
2018-03-20T23:25:19.603Z,8.20
2018-03-20T23:27:47.994Z,11.07
2018-03-20T23:30:17.427Z,9.20
2018-03-20T23:32:45.700Z,9.97
2018-03-20T23:35:13.970Z,11.20
2018-03-20T23:37:43.013Z,10.80
2018-03-20T23:40:11.296Z,9.20
2018-03-20T23:42:39.563Z,9.27
2018-03-20T23:45:09.216Z,9.90
2018-03-20T23:47:37.497Z,9.93
2018-03-20T23:50:05.804Z,11.67
2018-03-20T23:52:34.076Z,9.13
2018-03-20T23:55:02.340Z,11.60
2018-03-20T23:57:32.113Z,10.23
